Time;durP1;ratioP1;P1;durP2;ratioP2;P2;SDS_P1;SDS_P2;PMS_P1;PMS_P2;Temp;Humidity;BMP_temperature;BMP_pressure;BME280_temperature;BME280_humidity;BME280_pressure;Samples;Min_cycle;Max_cycle;Signal;HPM_P1;HPM_P2
2021/03/15 00:00:52;;;;;;;11.52;2.95;;;;;;;;;;5035874;28;20033;-56
2021/03/15 00:03:19;;;;;;;6.82;3.42;;;;;;;;;;5035965;28;20437;-56
2021/03/15 00:05:46;;;;;;;10.10;3.50;;;;;;;;;;5036026;28;20029;-56
2021/03/15 00:08:13;;;;;;;7.40;3.42;;;;;;;;;;5018181;28;20032;-56
2021/03/15 00:10:39;;;;;;;8.48;3.83;;;;;;;;;;5035914;28;20474;-56
2021/03/15 00:13:07;;;;;;;12.23;3.20;;;;;;;;;;5035755;28;20092;-56
2021/03/15 00:15:35;;;;;;;8.48;3.22;;;;;;;;;;5035616;28;20028;-56
2021/03/15 00:18:02;;;;;;;12.82;3.83;;;;;;;;;;5035660;28;20025;-56
2021/03/15 00:20:29;;;;;;;15.00;3.70;;;;;;;;;;5035624;28;20068;-56
2021/03/15 00:22:56;;;;;;;11.05;3.63;;;;;;;;;;5035695;28;20084;-56
2021/03/15 00:25:22;;;;;;;7.60;3.70;;;;;;;;;;5035498;28;20060;-56
2021/03/15 00:27:49;;;;;;;4.72;2.88;;;;;;;;;;5035467;28;20045;-56
2021/03/15 00:30:17;;;;;;;9.30;3.55;;;;;;;;;;5035557;28;20029;-56
2021/03/15 00:32:44;;;;;;;6.85;3.47;;;;;;;;;;5035453;28;20072;-56
2021/03/15 00:35:12;;;;;;;11.52;3.95;;;;;;;;;;5035390;28;20096;-56
2021/03/15 00:37:39;;;;;;;9.52;4.35;;;;;;;;;;5035302;28;20033;-56
2021/03/15 00:40:07;;;;;;;6.70;3.45;;;;;;;;;;5035147;28;20036;-56
2021/03/15 00:42:34;;;;;;;10.40;4.10;;;;;;;;;;5036271;28;20053;-57
2021/03/15 00:45:01;;;;;;;10.93;3.60;;;;;;;;;;5035117;28;20021;-56
2021/03/15 00:47:28;;;;;;;7.63;3.83;;;;;;;;;;5035195;28;20033;-56
2021/03/15 00:49:55;;;;;;;5.10;3.53;;;;;;;;;;5035211;28;20040;-56
2021/03/15 00:52:22;;;;;;;8.47;3.80;;;;;;;;;;5035164;28;20053;-56
2021/03/15 00:54:49;;;;;;;16.87;4.13;;;;;;;;;;5034929;28;20030;-56
2021/03/15 00:57:17;;;;;;;5.50;3.33;;;;;;;;;;5034867;28;20205;-56
2021/03/15 00:59:45;;;;;;;8.57;3.60;;;;;;;;;;5034932;28;20100;-56
2021/03/15 01:02:12;;;;;;;4.90;3.27;;;;;;;;;;5017278;28;20084;-56
2021/03/15 01:04:38;;;;;;;7.20;3.60;;;;;;;;;;5017118;28;20032;-56
2021/03/15 01:07:06;;;;;;;10.07;3.90;;;;;;;;;;5034930;28;20033;-56
2021/03/15 01:09:33;;;;;;;8.97;3.73;;;;;;;;;;5017322;28;20514;-57
2021/03/15 01:11:59;;;;;;;10.53;3.73;;;;;;;;;;5034933;28;20021;-56
2021/03/15 01:14:26;;;;;;;8.73;3.70;;;;;;;;;;5034665;28;20380;-56
2021/03/15 01:16:53;;;;;;;19.23;4.17;;;;;;;;;;5034705;28;20040;-56
2021/03/15 01:19:20;;;;;;;9.07;3.73;;;;;;;;;;5034671;28;20041;-56
2021/03/15 01:21:49;;;;;;;5.90;3.80;;;;;;;;;;5034315;28;20160;-56
2021/03/15 01:24:16;;;;;;;10.53;3.90;;;;;;;;;;5034522;28;20025;-56
2021/03/15 01:26:43;;;;;;;7.77;3.43;;;;;;;;;;5034500;28;20110;-56
2021/03/15 01:29:09;;;;;;;10.90;3.87;;;;;;;;;;5034485;28;20384;-56
2021/03/15 01:31:36;;;;;;;7.53;3.93;;;;;;;;;;5034308;28;20030;-56
2021/03/15 01:34:03;;;;;;;8.37;3.70;;;;;;;;;;5034059;28;20504;-56
2021/03/15 01:36:30;;;;;;;7.27;4.20;;;;;;;;;;5034336;28;20026;-56
2021/03/15 01:38:56;;;;;;;9.33;4.00;;;;;;;;;;5034237;28;20077;-56
2021/03/15 01:41:23;;;;;;;11.03;4.53;;;;;;;;;;5035532;28;20060;-56
2021/03/15 01:43:50;;;;;;;10.47;4.50;;;;;;;;;;5034057;28;20044;-56
2021/03/15 01:46:17;;;;;;;7.87;4.40;;;;;;;;;;5034499;28;20022;-56
2021/03/15 01:48:44;;;;;;;8.87;4.17;;;;;;;;;;5034136;28;20026;-56
2021/03/15 01:51:10;;;;;;;15.10;4.17;;;;;;;;;;5034082;28;20057;-56
2021/03/15 01:53:38;;;;;;;9.73;4.00;;;;;;;;;;5033960;28;20492;-56
2021/03/15 01:56:05;;;;;;;9.30;4.80;;;;;;;;;;5033224;28;20033;-56
2021/03/15 01:58:31;;;;;;;7.30;4.27;;;;;;;;;;5033924;28;20021;-56
2021/03/15 02:00:58;;;;;;;7.63;4.50;;;;;;;;;;5033756;28;20033;-56
2021/03/15 02:03:25;;;;;;;17.27;4.40;;;;;;;;;;5033719;28;20029;-56
2021/03/15 02:05:52;;;;;;;8.70;4.43;;;;;;;;;;5033775;28;20029;-56
2021/03/15 02:08:19;;;;;;;7.73;4.00;;;;;;;;;;5033787;28;20025;-56
2021/03/15 02:10:49;;;;;;;9.60;3.93;;;;;;;;;;5033512;28;20107;-56
2021/03/15 02:13:24;;;;;;;7.47;4.80;;;;;;;;;;5033646;28;20033;-56
2021/03/15 02:15:54;;;;;;;6.33;4.43;;;;;;;;;;5033599;28;20037;-56
2021/03/15 02:18:27;;;;;;;9.03;4.67;;;;;;;;;;5033552;28;20476;-56
2021/03/15 02:21:03;;;;;;;12.43;5.23;;;;;;;;;;5033353;28;20480;-56
2021/03/15 02:23:36;;;;;;;7.87;4.93;;;;;;;;;;5033494;28;20461;-56
2021/03/15 02:26:03;;;;;;;14.30;4.57;;;;;;;;;;5033370;28;20037;-56
2021/03/15 02:28:48;;;;;;;8.03;4.80;;;;;;;;;;5033256;28;20547;-56
2021/03/15 02:31:15;;;;;;;9.38;4.95;;;;;;;;;;5033365;28;20030;-56
2021/03/15 02:33:51;;;;;;;11.27;4.57;;;;;;;;;;5033173;28;20029;-56
2021/03/15 02:36:19;;;;;;;10.90;4.70;;;;;;;;;;5033223;28;20112;-56
2021/03/15 02:39:01;;;;;;;9.33;4.47;;;;;;;;;;5033223;28;20037;-56
2021/03/15 02:41:28;;;;;;;9.70;4.60;;;;;;;;;;5034167;28;20205;-56
2021/03/15 02:43:58;;;;;;;9.87;4.90;;;;;;;;;;5033065;28;20033;-56
2021/03/15 02:46:26;;;;;;;9.23;4.83;;;;;;;;;;5033007;28;20017;-56
2021/03/15 02:48:55;;;;;;;10.73;4.87;;;;;;;;;;5033057;28;20039;-56
2021/03/15 02:51:25;;;;;;;9.17;4.83;;;;;;;;;;5033001;28;20026;-56
2021/03/15 02:53:52;;;;;;;8.50;4.97;;;;;;;;;;5032947;28;20056;-56
2021/03/15 02:56:25;;;;;;;12.87;5.30;;;;;;;;;;5032956;28;20085;-56
2021/03/15 02:58:55;;;;;;;10.13;4.73;;;;;;;;;;5032957;28;20060;-56
2021/03/15 03:01:23;;;;;;;7.13;4.50;;;;;;;;;;5032912;28;20092;-56
2021/03/15 03:03:51;;;;;;;12.03;5.13;;;;;;;;;;5032852;28;20436;-56
2021/03/15 03:06:19;;;;;;;10.33;5.00;;;;;;;;;;5032823;28;20109;-56
2021/03/15 03:08:46;;;;;;;11.10;5.03;;;;;;;;;;5032860;28;20026;-56
2021/03/15 03:11:14;;;;;;;8.87;5.67;;;;;;;;;;5032855;28;20116;-56
2021/03/15 03:13:43;;;;;;;9.43;5.10;;;;;;;;;;5032704;28;20084;-56
2021/03/15 03:16:10;;;;;;;11.93;4.77;;;;;;;;;;5032706;28;20057;-55
2021/03/15 03:18:37;;;;;;;6.63;4.73;;;;;;;;;;5032690;28;20025;-55
2021/03/15 03:21:05;;;;;;;9.63;4.57;;;;;;;;;;5032451;28;20114;-55
2021/03/15 03:23:34;;;;;;;12.93;5.27;;;;;;;;;;5032877;28;20068;-55
2021/03/15 03:26:02;;;;;;;9.23;4.97;;;;;;;;;;5032699;28;20021;-55
2021/03/15 03:28:29;;;;;;;6.83;4.70;;;;;;;;;;5032676;28;20022;-55
2021/03/15 03:30:57;;;;;;;8.93;5.37;;;;;;;;;;5032336;28;20531;-55
2021/03/15 03:33:24;;;;;;;10.27;5.47;;;;;;;;;;5032506;28;20027;-55
2021/03/15 03:35:51;;;;;;;8.87;4.80;;;;;;;;;;5032399;28;20080;-55
2021/03/15 03:38:18;;;;;;;10.33;4.87;;;;;;;;;;5032384;28;20025;-56
2021/03/15 03:40:45;;;;;;;12.47;5.10;;;;;;;;;;5032232;28;20456;-56
2021/03/15 03:43:12;;;;;;;13.53;5.33;;;;;;;;;;5033381;28;20156;-56
2021/03/15 03:45:38;;;;;;;6.97;4.40;;;;;;;;;;5014963;28;20036;-56
2021/03/15 03:48:05;;;;;;;8.73;5.00;;;;;;;;;;5032344;28;20080;-56
2021/03/15 03:50:34;;;;;;;8.63;5.00;;;;;;;;;;5032373;28;20025;-56
2021/03/15 03:53:20;;;;;;;11.17;5.13;;;;;;;;;;5032389;28;20025;-56
2021/03/15 03:55:46;;;;;;;10.50;5.40;;;;;;;;;;5032357;28;20026;-56
2021/03/15 03:58:15;;;;;;;11.23;5.37;;;;;;;;;;5032318;28;20025;-56
2021/03/15 04:00:43;;;;;;;11.07;5.00;;;;;;;;;;5032250;28;20044;-56
2021/03/15 04:03:19;;;;;;;10.77;5.77;;;;;;;;;;5032198;28;20029;-56
2021/03/15 04:05:51;;;;;;;10.07;5.10;;;;;;;;;;5032111;28;20111;-55
2021/03/15 04:08:25;;;;;;;12.20;5.33;;;;;;;;;;5032106;28;20105;-56
2021/03/15 04:10:53;;;;;;;9.63;4.82;;;;;;;;;;5032179;28;20117;-56
2021/03/15 04:13:20;;;;;;;11.20;5.10;;;;;;;;;;5032242;28;20021;-56
2021/03/15 04:15:48;;;;;;;9.13;4.60;;;;;;;;;;5032167;28;20057;-56
2021/03/15 04:18:21;;;;;;;14.07;5.70;;;;;;;;;;5033124;28;20389;-56
2021/03/15 04:20:49;;;;;;;8.33;5.30;;;;;;;;;;5035524;28;20076;-56
2021/03/15 04:23:18;;;;;;;9.30;5.00;;;;;;;;;;5035762;28;20032;-56
2021/03/15 04:25:45;;;;;;;8.00;4.63;;;;;;;;;;5035458;28;20022;-56
2021/03/15 04:28:12;;;;;;;7.43;5.20;;;;;;;;;;5035546;28;20036;-56
2021/03/15 04:30:40;;;;;;;8.20;5.07;;;;;;;;;;5035589;28;20520;-56
2021/03/15 04:33:08;;;;;;;9.83;4.87;;;;;;;;;;5035445;28;20103;-56
2021/03/15 04:35:35;;;;;;;10.63;6.10;;;;;;;;;;5035438;28;20037;-56
2021/03/15 04:38:04;;;;;;;7.87;4.70;;;;;;;;;;5035355;28;20080;-56
2021/03/15 04:40:32;;;;;;;8.83;5.37;;;;;;;;;;5035395;28;20041;-56
2021/03/15 04:43:00;;;;;;;9.17;4.87;;;;;;;;;;5036457;28;20152;-56
2021/03/15 04:45:34;;;;;;;9.43;3.97;;;;;;;;;;5035184;28;20037;-56
2021/03/15 04:48:01;;;;;;;11.27;4.70;;;;;;;;;;5035186;28;20025;-56
2021/03/15 04:50:29;;;;;;;13.50;4.70;;;;;;;;;;5035148;28;20396;-56
2021/03/15 04:52:56;;;;;;;10.60;6.03;;;;;;;;;;5035211;28;20026;-56
2021/03/15 04:55:25;;;;;;;14.67;6.73;;;;;;;;;;5035046;28;20388;-56
2021/03/15 04:57:53;;;;;;;15.90;8.40;;;;;;;;;;5035128;28;20079;-56
2021/03/15 05:00:21;;;;;;;14.07;7.90;;;;;;;;;;5034968;28;20488;-56
2021/03/15 05:02:48;;;;;;;24.33;13.07;;;;;;;;;;5034975;28;20052;-56
2021/03/15 05:05:16;;;;;;;24.33;12.10;;;;;;;;;;5034785;28;20083;-56
2021/03/15 05:07:43;;;;;;;25.17;11.50;;;;;;;;;;5034906;28;20037;-56
2021/03/15 05:10:11;;;;;;;13.93;7.67;;;;;;;;;;5034674;28;20034;-56
2021/03/15 05:12:38;;;;;;;22.23;11.57;;;;;;;;;;5034659;28;20373;-56
2021/03/15 05:15:07;;;;;;;21.13;11.17;;;;;;;;;;5034679;28;20013;-56
2021/03/15 05:17:35;;;;;;;13.30;6.80;;;;;;;;;;5034751;28;20104;-56
2021/03/15 05:20:04;;;;;;;8.97;5.10;;;;;;;;;;5034629;28;20066;-56
2021/03/15 05:22:32;;;;;;;11.20;6.07;;;;;;;;;;5034631;28;20061;-56
2021/03/15 05:25:00;;;;;;;14.07;6.63;;;;;;;;;;5034471;28;20290;-56
2021/03/15 05:27:28;;;;;;;14.50;7.40;;;;;;;;;;5034568;28;20048;-55
2021/03/15 05:29:58;;;;;;;12.27;6.10;;;;;;;;;;5033467;28;20084;-55
2021/03/15 05:32:26;;;;;;;16.40;5.87;;;;;;;;;;5034392;28;20468;-55
2021/03/15 05:34:54;;;;;;;14.03;7.20;;;;;;;;;;5034370;28;20025;-56
2021/03/15 05:37:21;;;;;;;9.13;5.33;;;;;;;;;;5034373;28;20037;-55
2021/03/15 05:39:47;;;;;;;8.00;5.00;;;;;;;;;;5034175;28;20025;-56
2021/03/15 05:42:15;;;;;;;7.57;4.80;;;;;;;;;;5035112;28;20515;-56
2021/03/15 05:44:48;;;;;;;9.17;4.23;;;;;;;;;;5034223;28;20021;-56
2021/03/15 05:47:14;;;;;;;11.27;4.67;;;;;;;;;;5034072;28;20034;-56
2021/03/15 05:49:59;;;;;;;10.87;5.20;;;;;;;;;;5034111;28;20073;-55
2021/03/15 05:52:35;;;;;;;8.73;4.50;;;;;;;;;;5034130;28;20101;-56
2021/03/15 05:55:02;;;;;;;10.60;5.23;;;;;;;;;;5033965;28;20018;-56
2021/03/15 05:57:35;;;;;;;10.30;6.27;;;;;;;;;;5016223;28;20555;-56
2021/03/15 06:00:17;;;;;;;11.53;5.93;;;;;;;;;;5033792;28;20026;-56
2021/03/15 06:02:43;;;;;;;7.93;4.83;;;;;;;;;;5033794;28;20381;-56
2021/03/15 06:05:28;;;;;;;7.60;4.50;;;;;;;;;;5033777;28;20468;-55
2021/03/15 06:08:12;;;;;;;6.70;4.38;;;;;;;;;;5033781;28;20026;-55
2021/03/15 06:11:02;;;;;;;8.23;4.70;;;;;;;;;;5033875;28;20392;-55
2021/03/15 06:13:31;;;;;;;9.33;4.30;;;;;;;;;;5033640;28;20107;-55
2021/03/15 06:15:59;;;;;;;12.60;4.93;;;;;;;;;;5033524;28;20484;-55
2021/03/15 06:18:29;;;;;;;11.17;4.83;;;;;;;;;;5033598;28;20025;-55
2021/03/15 06:20:56;;;;;;;8.97;4.57;;;;;;;;;;5033385;28;20045;-55
2021/03/15 06:23:24;;;;;;;15.57;4.83;;;;;;;;;;5033296;28;20025;-55
2021/03/15 06:25:51;;;;;;;8.57;4.43;;;;;;;;;;5033440;28;20141;-55
2021/03/15 06:28:19;;;;;;;11.83;5.13;;;;;;;;;;5033211;28;20077;-56
2021/03/15 06:30:46;;;;;;;8.40;4.87;;;;;;;;;;5033396;28;20036;-55
2021/03/15 06:33:14;;;;;;;8.30;4.83;;;;;;;;;;5033360;28;20033;-55
2021/03/15 06:35:42;;;;;;;10.63;4.73;;;;;;;;;;5033336;28;20541;-55
2021/03/15 06:38:09;;;;;;;11.37;5.20;;;;;;;;;;5033242;28;20029;-56
2021/03/15 06:40:37;;;;;;;8.97;4.93;;;;;;;;;;5032903;28;20116;-55
2021/03/15 06:43:04;;;;;;;9.63;4.87;;;;;;;;;;5034487;28;20056;-55
2021/03/15 06:45:31;;;;;;;7.07;4.40;;;;;;;;;;5033132;28;20058;-55
2021/03/15 06:47:59;;;;;;;7.50;4.87;;;;;;;;;;5033143;28;20030;-55
2021/03/15 06:50:26;;;;;;;6.50;4.77;;;;;;;;;;5032981;28;20375;-56
2021/03/15 06:52:55;;;;;;;6.87;4.60;;;;;;;;;;5033151;28;20408;-55
2021/03/15 06:55:37;;;;;;;9.60;4.87;;;;;;;;;;5032965;28;20021;-55
2021/03/15 06:58:19;;;;;;;6.57;4.17;;;;;;;;;;5033004;28;20033;-55
2021/03/15 07:00:47;;;;;;;11.53;4.30;;;;;;;;;;5032874;28;20045;-55
2021/03/15 07:03:23;;;;;;;8.87;5.13;;;;;;;;;;5032884;28;20036;-56
2021/03/15 07:05:56;;;;;;;8.80;4.67;;;;;;;;;;5032873;28;20465;-56
2021/03/15 07:08:24;;;;;;;8.87;4.63;;;;;;;;;;5032837;28;20075;-55
2021/03/15 07:10:51;;;;;;;10.43;4.50;;;;;;;;;;5032945;28;20673;-55
2021/03/15 07:13:19;;;;;;;12.93;5.17;;;;;;;;;;5032787;28;20112;-55
2021/03/15 07:15:47;;;;;;;19.97;5.83;;;;;;;;;;5032711;28;20437;-55
2021/03/15 07:18:21;;;;;;;14.67;5.60;;;;;;;;;;5032789;28;20033;-55
2021/03/15 07:20:51;;;;;;;11.97;5.60;;;;;;;;;;5032430;28;20034;-55
2021/03/15 07:23:38;;;;;;;14.00;6.00;;;;;;;;;;5032546;28;20037;-55
2021/03/15 07:26:11;;;;;;;9.03;4.87;;;;;;;;;;5032697;28;20013;-55
2021/03/15 07:28:38;;;;;;;8.77;4.93;;;;;;;;;;5032496;28;20033;-55
2021/03/15 07:31:31;;;;;;;9.30;4.60;;;;;;;;;;5032637;28;20021;-55
2021/03/15 07:33:58;;;;;;;7.53;5.33;;;;;;;;;;5028405;28;20041;-55
2021/03/15 07:36:31;;;;;;;12.00;5.20;;;;;;;;;;5032644;28;20100;-55
2021/03/15 07:39:08;;;;;;;12.73;4.73;;;;;;;;;;5032551;28;20022;-55
2021/03/15 07:41:38;;;;;;;7.47;5.23;;;;;;;;;;5032549;28;20037;-55
2021/03/15 07:44:16;;;;;;;11.13;5.20;;;;;;;;;;5033701;28;20113;-56
2021/03/15 07:46:45;;;;;;;7.57;4.67;;;;;;;;;;5032528;28;20488;-55
2021/03/15 07:49:24;;;;;;;8.37;4.97;;;;;;;;;;5032351;28;20025;-55
2021/03/15 07:51:54;;;;;;;9.30;5.67;;;;;;;;;;5032394;28;20097;-55
2021/03/15 07:54:25;;;;;;;8.57;5.60;;;;;;;;;;5035358;28;20029;-55
2021/03/15 07:57:11;;;;;;;13.20;5.47;;;;;;;;;;5036230;28;20052;-55
2021/03/15 07:59:38;;;;;;;7.13;4.97;;;;;;;;;;5036294;28;20025;-55
2021/03/15 08:02:05;;;;;;;7.83;5.33;;;;;;;;;;5035984;28;20120;-55
2021/03/15 08:04:31;;;;;;;8.07;5.27;;;;;;;;;;5036015;28;20060;-55
2021/03/15 08:06:58;;;;;;;8.93;5.20;;;;;;;;;;5036119;28;20523;-55
2021/03/15 08:09:25;;;;;;;7.50;5.23;;;;;;;;;;5036032;28;20056;-55
2021/03/15 08:11:53;;;;;;;8.43;4.47;;;;;;;;;;5035983;28;20104;-55
2021/03/15 08:14:21;;;;;;;10.33;5.33;;;;;;;;;;5035738;28;20108;-55
2021/03/15 08:16:48;;;;;;;8.57;5.60;;;;;;;;;;5018223;28;20471;-55
2021/03/15 08:19:18;;;;;;;7.80;5.03;;;;;;;;;;5035769;28;20053;-55
2021/03/15 08:21:45;;;;;;;7.73;4.70;;;;;;;;;;5035646;28;20101;-55
2021/03/15 08:24:14;;;;;;;10.00;5.37;;;;;;;;;;5035569;28;20025;-55
2021/03/15 08:26:42;;;;;;;9.37;4.83;;;;;;;;;;5035568;28;20393;-55
2021/03/15 08:29:09;;;;;;;7.43;4.70;;;;;;;;;;5035660;28;20032;-55
2021/03/15 08:31:39;;;;;;;8.67;4.63;;;;;;;;;;5035624;28;20026;-55
2021/03/15 08:34:06;;;;;;;10.43;4.60;;;;;;;;;;5035509;28;20025;-55
2021/03/15 08:36:43;;;;;;;6.27;4.23;;;;;;;;;;5035353;28;20100;-55
2021/03/15 08:39:30;;;;;;;8.50;4.77;;;;;;;;;;5035278;28;20481;-55
2021/03/15 08:42:15;;;;;;;8.07;5.37;;;;;;;;;;5036581;28;20069;-56
2021/03/15 08:44:45;;;;;;;8.32;5.20;;;;;;;;;;5035403;28;20029;-55
2021/03/15 08:47:13;;;;;;;7.07;4.63;;;;;;;;;;5035142;28;20036;-55
2021/03/15 08:49:44;;;;;;;9.33;4.77;;;;;;;;;;5035298;28;20025;-55
2021/03/15 08:52:11;;;;;;;9.03;5.37;;;;;;;;;;5035268;28;20025;-55
2021/03/15 08:54:39;;;;;;;7.90;4.90;;;;;;;;;;5035158;28;20021;-55
2021/03/15 08:57:07;;;;;;;7.73;5.13;;;;;;;;;;5035135;28;20026;-55
2021/03/15 08:59:34;;;;;;;7.03;4.60;;;;;;;;;;5035121;28;20116;-55
2021/03/15 09:02:05;;;;;;;10.20;4.97;;;;;;;;;;5034948;28;20073;-55
2021/03/15 09:04:41;;;;;;;9.20;4.70;;;;;;;;;;5034785;28;20025;-55
2021/03/15 09:07:43;;;;;;;10.00;5.37;;;;;;;;;;5034807;28;20033;-55
2021/03/15 09:10:27;;;;;;;7.13;4.60;;;;;;;;;;4983391;28;20040;-55
2021/03/15 09:13:15;;;;;;;6.33;4.10;;;;;;;;;;5034717;28;20453;-55
2021/03/15 09:15:42;;;;;;;10.93;4.70;;;;;;;;;;5035045;28;20057;-55
2021/03/15 09:18:27;;;;;;;7.00;4.70;;;;;;;;;;5034762;28;20021;-55
2021/03/15 09:20:54;;;;;;;6.05;4.03;;;;;;;;;;5034458;28;20029;-55
2021/03/15 09:23:32;;;;;;;6.43;4.37;;;;;;;;;;5034512;28;20033;-55
2021/03/15 09:26:17;;;;;;;8.50;4.90;;;;;;;;;;5034622;28;20026;-55
2021/03/15 09:28:44;;;;;;;10.20;4.80;;;;;;;;;;5034860;28;20029;-55
2021/03/15 09:31:10;;;;;;;6.80;4.80;;;;;;;;;;5034562;28;20029;-55
2021/03/15 09:33:38;;;;;;;8.60;4.47;;;;;;;;;;5034453;28;20030;-55
2021/03/15 09:36:05;;;;;;;9.97;4.80;;;;;;;;;;5034233;28;20542;-55
2021/03/15 09:38:32;;;;;;;9.10;4.80;;;;;;;;;;5034567;28;20022;-55
2021/03/15 09:40:59;;;;;;;6.07;3.97;;;;;;;;;;5034047;28;20564;-55
2021/03/15 09:43:26;;;;;;;8.37;4.93;;;;;;;;;;5035515;28;20049;-55
2021/03/15 09:46:00;;;;;;;7.83;4.43;;;;;;;;;;5034115;28;20104;-55
2021/03/15 09:48:28;;;;;;;7.70;5.23;;;;;;;;;;5034188;28;20284;-55
2021/03/15 09:50:59;;;;;;;7.90;4.90;;;;;;;;;;5034145;28;20085;-55
2021/03/15 09:53:26;;;;;;;7.70;4.77;;;;;;;;;;5033920;28;20040;-55
2021/03/15 09:56:05;;;;;;;8.67;5.00;;;;;;;;;;5016245;28;20025;-55
2021/03/15 09:58:32;;;;;;;6.90;4.80;;;;;;;;;;5033863;28;20021;-55
2021/03/15 10:00:59;;;;;;;5.77;3.83;;;;;;;;;;5033854;28;20040;-55
2021/03/15 10:03:26;;;;;;;6.47;4.37;;;;;;;;;;5033736;28;20017;-55
2021/03/15 10:05:54;;;;;;;7.07;4.23;;;;;;;;;;5033836;28;20489;-55
2021/03/15 10:08:21;;;;;;;6.93;4.23;;;;;;;;;;5033770;28;20377;-55
2021/03/15 10:10:48;;;;;;;5.60;4.43;;;;;;;;;;5033787;28;20029;-55
2021/03/15 10:13:15;;;;;;;7.57;4.20;;;;;;;;;;5033601;28;20251;-55
2021/03/15 10:15:42;;;;;;;8.07;4.67;;;;;;;;;;5033090;28;20025;-55
2021/03/15 10:18:09;;;;;;;8.30;4.30;;;;;;;;;;5033529;28;20026;-55
2021/03/15 10:20:40;;;;;;;8.50;4.67;;;;;;;;;;5033366;28;20037;-55
2021/03/15 10:23:12;;;;;;;8.03;4.73;;;;;;;;;;5033500;28;20033;-55
2021/03/15 10:25:40;;;;;;;6.90;4.00;;;;;;;;;;5033452;28;20305;-55
2021/03/15 10:28:07;;;;;;;8.03;4.83;;;;;;;;;;5033372;28;20025;-55
2021/03/15 10:30:35;;;;;;;6.63;4.43;;;;;;;;;;5033442;28;20025;-55
2021/03/15 10:33:02;;;;;;;7.17;4.43;;;;;;;;;;5033207;28;20052;-55
2021/03/15 10:35:30;;;;;;;9.20;4.80;;;;;;;;;;5033368;28;20254;-55
2021/03/15 10:37:59;;;;;;;7.53;4.80;;;;;;;;;;5033262;28;20029;-55
2021/03/15 10:40:25;;;;;;;6.20;4.07;;;;;;;;;;5033051;28;20302;-55
2021/03/15 10:42:53;;;;;;;11.87;4.83;;;;;;;;;;5033851;28;20278;-55
2021/03/15 10:45:22;;;;;;;6.87;4.37;;;;;;;;;;5033159;28;20253;-55
2021/03/15 10:47:49;;;;;;;7.53;4.27;;;;;;;;;;5033056;28;20376;-55
2021/03/15 10:50:26;;;;;;;6.47;4.23;;;;;;;;;;5033075;28;20255;-55
2021/03/15 10:52:52;;;;;;;8.27;4.17;;;;;;;;;;5033195;28;20309;-55
2021/03/15 10:55:20;;;;;;;7.60;4.80;;;;;;;;;;5032743;28;20329;-55
2021/03/15 10:58:08;;;;;;;6.93;4.70;;;;;;;;;;5032845;28;20310;-55
2021/03/15 11:00:51;;;;;;;7.10;4.40;;;;;;;;;;5032798;28;20678;-55
2021/03/15 11:03:22;;;;;;;7.23;4.13;;;;;;;;;;5032732;28;20335;-55
2021/03/15 11:06:02;;;;;;;7.50;4.80;;;;;;;;;;5032783;28;20281;-55
2021/03/15 11:08:29;;;;;;;9.33;3.93;;;;;;;;;;5032735;28;20251;-55
2021/03/15 11:10:57;;;;;;;7.13;4.87;;;;;;;;;;5032905;28;20298;-55
2021/03/15 11:13:25;;;;;;;6.50;4.40;;;;;;;;;;5032742;28;20262;-55
2021/03/15 11:15:51;;;;;;;8.37;4.53;;;;;;;;;;5032831;28;20263;-55
2021/03/15 11:18:25;;;;;;;6.30;4.70;;;;;;;;;;5032687;28;20251;-55
2021/03/15 11:20:55;;;;;;;7.03;4.20;;;;;;;;;;5032526;28;20352;-55
2021/03/15 11:23:35;;;;;;;6.67;4.87;;;;;;;;;;5032675;28;20269;-55
2021/03/15 11:26:06;;;;;;;11.13;4.07;;;;;;;;;;5032734;28;20262;-55
2021/03/15 11:28:34;;;;;;;7.10;4.90;;;;;;;;;;5034455;28;20258;-55
2021/03/15 11:31:01;;;;;;;8.17;4.70;;;;;;;;;;5036722;28;20636;-55
2021/03/15 11:33:28;;;;;;;9.67;5.27;;;;;;;;;;5036519;28;20317;-55
2021/03/15 11:35:56;;;;;;;5.53;3.83;;;;;;;;;;5036653;28;20338;-55
2021/03/15 11:38:23;;;;;;;6.57;4.43;;;;;;;;;;5036546;28;20255;-55
2021/03/15 11:40:51;;;;;;;10.77;5.27;;;;;;;;;;5036383;28;20274;-55
2021/03/15 11:43:18;;;;;;;7.70;5.40;;;;;;;;;;5037982;28;20286;-55
2021/03/15 11:45:44;;;;;;;10.87;5.87;;;;;;;;;;5036323;28;20293;-55
2021/03/15 11:48:12;;;;;;;8.53;5.83;;;;;;;;;;5036295;28;20259;-55
2021/03/15 11:50:39;;;;;;;10.03;5.57;;;;;;;;;;5036282;28;20261;-55
2021/03/15 11:53:06;;;;;;;9.67;6.17;;;;;;;;;;5036313;28;20283;-55
2021/03/15 11:55:33;;;;;;;6.60;4.77;;;;;;;;;;5036313;28;20266;-55
2021/03/15 11:58:00;;;;;;;7.50;5.37;;;;;;;;;;5036545;28;20258;-55
2021/03/15 12:00:27;;;;;;;10.37;5.50;;;;;;;;;;5036096;28;20281;-55
2021/03/15 12:02:54;;;;;;;8.30;5.60;;;;;;;;;;5036412;28;20286;-55
2021/03/15 12:05:21;;;;;;;8.80;5.00;;;;;;;;;;5036173;28;20330;-55
2021/03/15 12:07:48;;;;;;;9.87;5.73;;;;;;;;;;5035904;28;20255;-55
2021/03/15 12:10:15;;;;;;;14.10;6.30;;;;;;;;;;5036054;28;20651;-55
2021/03/15 12:12:42;;;;;;;9.03;5.73;;;;;;;;;;5035823;28;20258;-55
2021/03/15 12:15:11;;;;;;;13.33;5.83;;;;;;;;;;5035983;28;20326;-55
2021/03/15 12:17:38;;;;;;;12.83;6.93;;;;;;;;;;5035767;28;20346;-55
2021/03/15 12:20:06;;;;;;;8.87;5.80;;;;;;;;;;5035685;28;20255;-55
2021/03/15 12:22:33;;;;;;;11.27;5.67;;;;;;;;;;5035861;28;20258;-55
2021/03/15 12:24:59;;;;;;;11.47;6.43;;;;;;;;;;5035798;28;20255;-55
2021/03/15 12:27:27;;;;;;;13.23;6.27;;;;;;;;;;5035625;28;20622;-55
2021/03/15 12:29:54;;;;;;;11.17;5.10;;;;;;;;;;5035581;28;20788;-55
2021/03/15 12:32:21;;;;;;;11.27;5.77;;;;;;;;;;5035674;28;20259;-55
2021/03/15 12:34:48;;;;;;;10.87;6.27;;;;;;;;;;5035512;28;20820;-54
2021/03/15 12:37:14;;;;;;;10.23;6.57;;;;;;;;;;5035385;28;20768;-54
2021/03/15 12:39:41;;;;;;;14.57;5.90;;;;;;;;;;5034973;28;20250;-54
2021/03/15 12:42:08;;;;;;;11.70;5.57;;;;;;;;;;5035314;28;20294;-54
2021/03/15 12:44:36;;;;;;;10.23;6.07;;;;;;;;;;5036590;28;20287;-54
2021/03/15 12:47:03;;;;;;;13.63;5.63;;;;;;;;;;5035150;28;20281;-54
2021/03/15 12:49:29;;;;;;;9.70;5.13;;;;;;;;;;5035329;28;20322;-54
2021/03/15 12:51:56;;;;;;;12.00;5.07;;;;;;;;;;5035177;28;20251;-54
2021/03/15 12:54:23;;;;;;;13.53;5.57;;;;;;;;;;5035190;28;20263;-54
2021/03/15 12:56:50;;;;;;;8.43;5.70;;;;;;;;;;5035194;28;20796;-54
2021/03/15 12:59:16;;;;;;;11.83;5.90;;;;;;;;;;5035059;28;20266;-54
2021/03/15 13:01:43;;;;;;;8.80;5.30;;;;;;;;;;5034826;28;20792;-54
2021/03/15 13:04:10;;;;;;;14.87;5.10;;;;;;;;;;5035022;28;20261;-54
2021/03/15 13:06:37;;;;;;;13.83;6.07;;;;;;;;;;5034989;28;20694;-54
2021/03/15 13:09:04;;;;;;;14.83;5.93;;;;;;;;;;5034953;28;20259;-54
2021/03/15 13:11:31;;;;;;;14.50;5.43;;;;;;;;;;5034984;28;20301;-54
2021/03/15 13:13:58;;;;;;;10.07;5.43;;;;;;;;;;5034765;28;20250;-54
2021/03/15 13:16:25;;;;;;;16.57;5.80;;;;;;;;;;5034798;28;20254;-54
2021/03/15 13:18:53;;;;;;;12.47;6.60;;;;;;;;;;5034575;28;20720;-54
2021/03/15 13:21:33;;;;;;;13.27;6.47;;;;;;;;;;5034369;28;20345;-55
2021/03/15 13:23:59;;;;;;;10.87;6.03;;;;;;;;;;5034607;28;20250;-55
2021/03/15 13:26:26;;;;;;;14.13;6.77;;;;;;;;;;5034443;28;20257;-55
2021/03/15 13:28:53;;;;;;;16.27;7.07;;;;;;;;;;5034601;28;20258;-55
2021/03/15 13:31:20;;;;;;;20.23;6.73;;;;;;;;;;5034601;28;20738;-55
2021/03/15 13:33:47;;;;;;;15.97;6.90;;;;;;;;;;5034309;28;20251;-55
2021/03/15 13:36:14;;;;;;;10.13;5.33;;;;;;;;;;5034439;28;20290;-55
2021/03/15 13:38:41;;;;;;;10.00;5.57;;;;;;;;;;5034424;28;20314;-55
2021/03/15 13:41:08;;;;;;;8.87;5.60;;;;;;;;;;5034297;28;20270;-55
2021/03/15 13:43:34;;;;;;;11.80;6.10;;;;;;;;;;5035578;28;20357;-55
2021/03/15 13:46:01;;;;;;;10.97;5.87;;;;;;;;;;5034882;28;20354;-55
2021/03/15 13:48:28;;;;;;;14.63;6.80;;;;;;;;;;5033974;28;20369;-55
2021/03/15 13:50:55;;;;;;;8.90;5.80;;;;;;;;;;5033203;28;20068;-55
2021/03/15 13:53:22;;;;;;;13.90;6.20;;;;;;;;;;5034071;28;20029;-55
2021/03/15 13:55:49;;;;;;;21.57;6.13;;;;;;;;;;5033993;28;20053;-55
2021/03/15 13:58:15;;;;;;;17.57;7.40;;;;;;;;;;5034188;28;20025;-55
2021/03/15 14:00:42;;;;;;;13.23;6.93;;;;;;;;;;5033799;28;20046;-55
2021/03/15 14:03:09;;;;;;;21.33;7.13;;;;;;;;;;5033890;28;20032;-55
2021/03/15 14:05:36;;;;;;;13.67;7.07;;;;;;;;;;5033771;28;20035;-55
2021/03/15 14:08:03;;;;;;;13.60;7.47;;;;;;;;;;5033901;28;20047;-55
2021/03/15 14:10:30;;;;;;;10.03;7.13;;;;;;;;;;5033733;28;20037;-55
2021/03/15 14:12:57;;;;;;;14.40;7.43;;;;;;;;;;5033655;28;20092;-55
2021/03/15 14:15:24;;;;;;;13.63;8.13;;;;;;;;;;5033565;28;20048;-56
2021/03/15 14:17:51;;;;;;;10.63;7.00;;;;;;;;;;5033582;28;20022;-55
2021/03/15 14:20:17;;;;;;;27.30;7.83;;;;;;;;;;5033590;28;20366;-56
2021/03/15 14:22:45;;;;;;;19.80;7.47;;;;;;;;;;5033413;28;20088;-56
2021/03/15 14:25:12;;;;;;;18.17;7.67;;;;;;;;;;5033557;28;20384;-56
2021/03/15 14:27:40;;;;;;;12.40;7.83;;;;;;;;;;5033223;28;20036;-56
2021/03/15 14:30:07;;;;;;;15.40;9.10;;;;;;;;;;5015573;28;20044;-55
2021/03/15 14:32:34;;;;;;;10.63;6.37;;;;;;;;;;5033439;28;20060;-56
2021/03/15 14:35:01;;;;;;;8.13;5.30;;;;;;;;;;5033358;28;20022;-56
2021/03/15 14:37:28;;;;;;;9.73;5.80;;;;;;;;;;5033239;28;20026;-56
2021/03/15 14:39:55;;;;;;;6.93;5.17;;;;;;;;;;5033262;28;20049;-56
2021/03/15 14:42:22;;;;;;;12.90;6.07;;;;;;;;;;5033083;28;20095;-56
2021/03/15 14:44:49;;;;;;;12.27;6.10;;;;;;;;;;5033945;28;20053;-56
2021/03/15 14:47:16;;;;;;;12.73;6.40;;;;;;;;;;5033431;28;20054;-56
2021/03/15 14:49:43;;;;;;;11.40;5.57;;;;;;;;;;5033172;28;20028;-56